sensor_id;sensor_type;location;lat;lon;timestamp;pressure;altitude;pressure_sealevel;temperature;humidity
13050;BME280;6591;51.446;5.404;2023-04-06T00:01:08;101513.13;;;9.50;35.18
13050;BME280;6591;51.446;5.404;2023-04-06T00:03:35;101503.44;;;9.49;35.19
13050;BME280;6591;51.446;5.404;2023-04-06T00:06:03;101507.88;;;9.49;35.49
13050;BME280;6591;51.446;5.404;2023-04-06T00:08:30;101505.28;;;9.47;35.50
13050;BME280;6591;51.446;5.404;2023-04-06T00:10:57;101492.16;;;9.43;35.40
13050;BME280;6591;51.446;5.404;2023-04-06T00:13:24;101499.31;;;9.41;35.35
13050;BME280;6591;51.446;5.404;2023-04-06T00:15:52;101495.81;;;9.39;35.78
13050;BME280;6591;51.446;5.404;2023-04-06T00:18:19;101498.59;;;9.34;35.47
13050;BME280;6591;51.446;5.404;2023-04-06T00:20:46;101497.84;;;9.30;35.42
13050;BME280;6591;51.446;5.404;2023-04-06T00:23:13;101496.16;;;9.26;35.46
13050;BME280;6591;51.446;5.404;2023-04-06T00:25:40;101496.28;;;9.23;35.77
13050;BME280;6591;51.446;5.404;2023-04-06T00:28:08;101487.50;;;9.21;36.15
13050;BME280;6591;51.446;5.404;2023-04-06T00:30:35;101493.72;;;9.20;35.68
13050;BME280;6591;51.446;5.404;2023-04-06T00:33:02;101482.28;;;9.18;35.78
13050;BME280;6591;51.446;5.404;2023-04-06T00:35:29;101486.72;;;9.18;36.10
13050;BME280;6591;51.446;5.404;2023-04-06T00:37:57;101486.75;;;9.16;35.87
13050;BME280;6591;51.446;5.404;2023-04-06T00:40:24;101479.75;;;9.15;36.10
13050;BME280;6591;51.446;5.404;2023-04-06T00:42:51;101480.66;;;9.14;36.24
13050;BME280;6591;51.446;5.404;2023-04-06T00:45:19;101479.81;;;9.12;36.04
13050;BME280;6591;51.446;5.404;2023-04-06T00:47:46;101482.50;;;9.11;36.29
13050;BME280;6591;51.446;5.404;2023-04-06T00:50:13;101474.56;;;9.11;36.44
13050;BME280;6591;51.446;5.404;2023-04-06T00:52:40;101464.97;;;9.07;36.10
13050;BME280;6591;51.446;5.404;2023-04-06T00:55:09;101463.28;;;9.04;36.48
13050;BME280;6591;51.446;5.404;2023-04-06T00:57:40;101463.38;;;9.01;36.13
13050;BME280;6591;51.446;5.404;2023-04-06T01:00:09;101464.31;;;9.00;36.55
13050;BME280;6591;51.446;5.404;2023-04-06T01:02:37;101455.53;;;8.98;36.19
13050;BME280;6591;51.446;5.404;2023-04-06T01:05:06;101447.56;;;8.98;36.68
13050;BME280;6591;51.446;5.404;2023-04-06T01:07:44;101450.25;;;8.97;36.30
13050;BME280;6591;51.446;5.404;2023-04-06T01:10:27;101445.94;;;8.94;36.41
13050;BME280;6591;51.446;5.404;2023-04-06T01:13:20;101446.75;;;8.96;36.33
13050;BME280;6591;51.446;5.404;2023-04-06T01:15:53;101442.34;;;8.95;36.57
13050;BME280;6591;51.446;5.404;2023-04-06T01:18:29;101441.50;;;8.95;36.66
13050;BME280;6591;51.446;5.404;2023-04-06T01:21:17;101445.84;;;8.97;36.48
13050;BME280;6591;51.446;5.404;2023-04-06T01:24:00;101447.56;;;8.98;36.78
13050;BME280;6591;51.446;5.404;2023-04-06T01:26:38;101444.81;;;9.01;36.67
13050;BME280;6591;51.446;5.404;2023-04-06T01:29:08;101440.41;;;9.02;37.00
13050;BME280;6591;51.446;5.404;2023-04-06T01:31:35;101433.31;;;9.02;36.81
13050;BME280;6591;51.446;5.404;2023-04-06T01:34:03;101435.91;;;9.05;36.94
13050;BME280;6591;51.446;5.404;2023-04-06T01:36:30;101442.00;;;9.07;37.21
13050;BME280;6591;51.446;5.404;2023-04-06T01:39:08;101431.25;;;9.12;37.62
13050;BME280;6591;51.446;5.404;2023-04-06T01:41:38;101428.53;;;9.15;37.20
13050;BME280;6591;51.446;5.404;2023-04-06T01:44:05;101428.44;;;9.18;37.47
13050;BME280;6591;51.446;5.404;2023-04-06T01:46:32;101419.47;;;9.22;37.21
13050;BME280;6591;51.446;5.404;2023-04-06T01:49:01;101419.41;;;9.25;37.63
13050;BME280;6591;51.446;5.404;2023-04-06T01:51:37;101420.13;;;9.30;37.69
13050;BME280;6591;51.446;5.404;2023-04-06T01:54:08;101412.91;;;9.35;37.36
13050;BME280;6591;51.446;5.404;2023-04-06T01:56:55;101406.53;;;9.41;37.38
13050;BME280;6591;51.446;5.404;2023-04-06T01:59:42;101409.88;;;9.47;37.53
13050;BME280;6591;51.446;5.404;2023-04-06T02:02:18;101404.44;;;9.52;37.61
13050;BME280;6591;51.446;5.404;2023-04-06T02:04:54;101398.00;;;9.59;37.64
13050;BME280;6591;51.446;5.404;2023-04-06T02:07:22;101401.34;;;9.64;37.90
13050;BME280;6591;51.446;5.404;2023-04-06T02:09:48;101394.94;;;9.71;37.74
13050;BME280;6591;51.446;5.404;2023-04-06T02:12:23;101395.63;;;9.77;37.51
13050;BME280;6591;51.446;5.404;2023-04-06T02:14:51;101384.84;;;9.82;37.76
13050;BME280;6591;51.446;5.404;2023-04-06T02:17:19;101389.09;;;9.88;37.65
13050;BME280;6591;51.446;5.404;2023-04-06T02:19:46;101388.03;;;9.93;38.06
13050;BME280;6591;51.446;5.404;2023-04-06T02:22:13;101386.06;;;9.98;37.76
13050;BME280;6591;51.446;5.404;2023-04-06T02:24:40;101389.44;;;10.03;37.58
13050;BME280;6591;51.446;5.404;2023-04-06T02:27:07;101383.94;;;10.09;37.77
13050;BME280;6591;51.446;5.404;2023-04-06T02:29:34;101385.53;;;10.13;38.25
13050;BME280;6591;51.446;5.404;2023-04-06T02:32:03;101377.50;;;10.16;37.92
13050;BME280;6591;51.446;5.404;2023-04-06T02:34:32;101374.69;;;10.21;37.88
13050;BME280;6591;51.446;5.404;2023-04-06T02:36:59;101375.47;;;10.25;37.56
13050;BME280;6591;51.446;5.404;2023-04-06T02:39:26;101373.56;;;10.28;37.89
13050;BME280;6591;51.446;5.404;2023-04-06T02:41:54;101369.94;;;10.31;37.75
13050;BME280;6591;51.446;5.404;2023-04-06T02:44:24;101362.72;;;10.34;38.18
13050;BME280;6591;51.446;5.404;2023-04-06T02:46:51;101359.03;;;10.38;37.97
13050;BME280;6591;51.446;5.404;2023-04-06T02:49:20;101358.06;;;10.41;38.16
13050;BME280;6591;51.446;5.404;2023-04-06T02:51:48;101354.47;;;10.42;37.96
13050;BME280;6591;51.446;5.404;2023-04-06T02:54:23;101350.84;;;10.44;38.20
13050;BME280;6591;51.446;5.404;2023-04-06T02:56:50;101353.47;;;10.46;38.07
13050;BME280;6591;51.446;5.404;2023-04-06T02:59:18;101353.34;;;10.49;38.13
13050;BME280;6591;51.446;5.404;2023-04-06T03:01:57;101352.41;;;10.50;38.22
13050;BME280;6591;51.446;5.404;2023-04-06T03:04:25;101342.63;;;10.52;38.32
13050;BME280;6591;51.446;5.404;2023-04-06T03:06:54;101342.50;;;10.55;38.19
13050;BME280;6591;51.446;5.404;2023-04-06T03:09:32;101343.31;;;10.57;38.10
13050;BME280;6591;51.446;5.404;2023-04-06T03:12:00;101344.09;;;10.59;38.12
13050;BME280;6591;51.446;5.404;2023-04-06T03:14:42;101338.69;;;10.62;38.28
13050;BME280;6591;51.446;5.404;2023-04-06T03:17:09;101338.56;;;10.65;38.33
13050;BME280;6591;51.446;5.404;2023-04-06T03:19:37;101334.06;;;10.67;38.03
13050;BME280;6591;51.446;5.404;2023-04-06T03:22:04;101332.22;;;10.69;38.07
13050;BME280;6591;51.446;5.404;2023-04-06T03:24:32;101327.75;;;10.70;37.92
13050;BME280;6591;51.446;5.404;2023-04-06T03:26:59;101333.81;;;10.73;37.94
13050;BME280;6591;51.446;5.404;2023-04-06T03:29:27;101321.41;;;10.74;38.38
13050;BME280;6591;51.446;5.404;2023-04-06T03:31:54;101327.53;;;10.76;38.46
13050;BME280;6591;51.446;5.404;2023-04-06T03:34:33;101319.53;;;10.77;38.23
13050;BME280;6591;51.446;5.404;2023-04-06T03:37:01;101317.66;;;10.79;38.37
13050;BME280;6591;51.446;5.404;2023-04-06T03:39:41;101315.88;;;10.80;37.90
13050;BME280;6591;51.446;5.404;2023-04-06T03:42:11;101317.59;;;10.81;38.29
13050;BME280;6591;51.446;5.404;2023-04-06T03:44:45;101313.09;;;10.83;38.27
13050;BME280;6591;51.446;5.404;2023-04-06T03:47:13;101313.97;;;10.83;38.11
13050;BME280;6591;51.446;5.404;2023-04-06T03:49:41;101311.25;;;10.85;37.62
13050;BME280;6591;51.446;5.404;2023-04-06T03:52:10;101319.16;;;10.86;38.29
13050;BME280;6591;51.446;5.404;2023-04-06T03:54:38;101319.16;;;10.86;37.99
13050;BME280;6591;51.446;5.404;2023-04-06T03:57:05;101312.97;;;10.86;38.09
13050;BME280;6591;51.446;5.404;2023-04-06T03:59:32;101317.31;;;10.88;38.38
13050;BME280;6591;51.446;5.404;2023-04-06T04:01:59;101316.44;;;10.88;37.86
13050;BME280;6591;51.446;5.404;2023-04-06T04:04:26;101319.97;;;10.88;38.04
13050;BME280;6591;51.446;5.404;2023-04-06T04:06:55;101313.78;;;10.88;37.99
13050;BME280;6591;51.446;5.404;2023-04-06T04:09:22;101322.63;;;10.88;38.37
13050;BME280;6591;51.446;5.404;2023-04-06T04:11:50;101319.16;;;10.86;38.41
13050;BME280;6591;51.446;5.404;2023-04-06T04:14:17;101315.63;;;10.86;37.85
13050;BME280;6591;51.446;5.404;2023-04-06T04:16:44;101309.44;;;10.85;37.97
13050;BME280;6591;51.446;5.404;2023-04-06T04:19:11;101318.34;;;10.84;38.38
13050;BME280;6591;51.446;5.404;2023-04-06T04:21:46;101311.41;;;10.80;38.32
13050;BME280;6591;51.446;5.404;2023-04-06T04:24:18;101317.66;;;10.79;37.99
13050;BME280;6591;51.446;5.404;2023-04-06T04:26:45;101319.44;;;10.79;37.85
13050;BME280;6591;51.446;5.404;2023-04-06T04:29:13;101314.22;;;10.77;38.32
13050;BME280;6591;51.446;5.404;2023-04-06T04:31:40;101309.75;;;10.78;38.05
13050;BME280;6591;51.446;5.404;2023-04-06T04:34:15;101313.25;;;10.78;38.16
13050;BME280;6591;51.446;5.404;2023-04-06T04:36:42;101311.47;;;10.79;38.47
13050;BME280;6591;51.446;5.404;2023-04-06T04:39:13;101308.75;;;10.80;38.37
13050;BME280;6591;51.446;5.404;2023-04-06T04:41:45;101301.66;;;10.81;38.33
13050;BME280;6591;51.446;5.404;2023-04-06T04:44:12;101301.63;;;10.82;38.54
13050;BME280;6591;51.446;5.404;2023-04-06T04:46:39;101306.00;;;10.83;38.35
13050;BME280;6591;51.446;5.404;2023-04-06T04:49:07;101301.53;;;10.84;38.29
13050;BME280;6591;51.446;5.404;2023-04-06T04:51:34;101307.59;;;10.87;38.68
13050;BME280;6591;51.446;5.404;2023-04-06T04:54:08;101303.09;;;10.89;38.54
13050;BME280;6591;51.446;5.404;2023-04-06T04:56:36;101295.06;;;10.91;38.17
13050;BME280;6591;51.446;5.404;2023-04-06T04:59:21;101295.78;;;10.94;38.42
13050;BME280;6591;51.446;5.404;2023-04-06T05:01:55;101287.69;;;10.99;38.36
13050;BME280;6591;51.446;5.404;2023-04-06T05:04:32;101289.28;;;11.03;38.47
13050;BME280;6591;51.446;5.404;2023-04-06T05:07:10;101290.94;;;11.05;38.45
13050;BME280;6591;51.446;5.404;2023-04-06T05:09:39;101290.69;;;11.12;38.12
13050;BME280;6591;51.446;5.404;2023-04-06T05:12:09;101287.06;;;11.14;38.57
13050;BME280;6591;51.446;5.404;2023-04-06T05:14:46;101289.53;;;11.19;38.54
13050;BME280;6591;51.446;5.404;2023-04-06T05:17:16;101290.31;;;11.21;38.36
13050;BME280;6591;51.446;5.404;2023-04-06T05:19:43;101285.75;;;11.24;38.45
13050;BME280;6591;51.446;5.404;2023-04-06T05:22:12;101290.06;;;11.27;38.23
13050;BME280;6591;51.446;5.404;2023-04-06T05:24:46;101289.00;;;11.31;38.26
13050;BME280;6591;51.446;5.404;2023-04-06T05:27:14;101298.59;;;11.35;38.39
13050;BME280;6591;51.446;5.404;2023-04-06T05:29:41;101292.22;;;11.39;38.41
13050;BME280;6591;51.446;5.404;2023-04-06T05:32:08;101295.56;;;11.44;38.57
13050;BME280;6591;51.446;5.404;2023-04-06T05:34:36;101295.41;;;11.47;38.18
13050;BME280;6591;51.446;5.404;2023-04-06T05:37:04;101295.22;;;11.52;38.34
13050;BME280;6591;51.446;5.404;2023-04-06T05:39:31;101295.06;;;11.56;38.62
13050;BME280;6591;51.446;5.404;2023-04-06T05:42:04;101296.69;;;11.59;38.60
13050;BME280;6591;51.446;5.404;2023-04-06T05:44:50;101289.38;;;11.64;38.56
13050;BME280;6591;51.446;5.404;2023-04-06T05:47:18;101294.50;;;11.68;38.25
13050;BME280;6591;51.446;5.404;2023-04-06T05:49:49;101289.06;;;11.71;38.25
13050;BME280;6591;51.446;5.404;2023-04-06T05:52:26;101288.03;;;11.75;38.26
13050;BME280;6591;51.446;5.404;2023-04-06T05:54:54;101283.44;;;11.79;38.55
13050;BME280;6591;51.446;5.404;2023-04-06T05:57:21;101288.56;;;11.83;38.36
13050;BME280;6591;51.446;5.404;2023-04-06T05:59:49;101287.44;;;11.89;38.19
13050;BME280;6591;51.446;5.404;2023-04-06T06:02:16;101291.63;;;11.95;38.64
13050;BME280;6591;51.446;5.404;2023-04-06T06:04:46;101286.03;;;12.01;38.12
13050;BME280;6591;51.446;5.404;2023-04-06T06:07:16;101287.50;;;12.08;38.20
13050;BME280;6591;51.446;5.404;2023-04-06T06:09:50;101293.41;;;12.14;38.43
13050;BME280;6591;51.446;5.404;2023-04-06T06:12:25;101294.88;;;12.21;38.54
13050;BME280;6591;51.446;5.404;2023-04-06T06:14:52;101293.72;;;12.27;38.51
13050;BME280;6591;51.446;5.404;2023-04-06T06:17:20;101294.25;;;12.35;38.50
13050;BME280;6591;51.446;5.404;2023-04-06T06:19:48;101292.03;;;12.45;38.34
13050;BME280;6591;51.446;5.404;2023-04-06T06:22:16;101292.59;;;12.51;38.23
13050;BME280;6591;51.446;5.404;2023-04-06T06:24:46;101286.78;;;12.62;38.46
13050;BME280;6591;51.446;5.404;2023-04-06T06:27:16;101281.09;;;12.69;38.09
13050;BME280;6591;51.446;5.404;2023-04-06T06:29:43;101285.97;;;12.79;38.51
13050;BME280;6591;51.446;5.404;2023-04-06T06:32:10;101280.38;;;12.85;38.17
13050;BME280;6591;51.446;5.404;2023-04-06T06:34:38;101290.59;;;12.94;38.10
13050;BME280;6591;51.446;5.404;2023-04-06T06:37:07;101289.38;;;13.01;38.01
13050;BME280;6591;51.446;5.404;2023-04-06T06:39:36;101283.66;;;13.08;38.20
13050;BME280;6591;51.446;5.404;2023-04-06T06:42:03;101282.44;;;13.15;38.06
13050;BME280;6591;51.446;5.404;2023-04-06T06:44:56;101292.59;;;13.26;38.10
13050;BME280;6591;51.446;5.404;2023-04-06T06:47:24;101286.09;;;13.32;38.25
13050;BME280;6591;51.446;5.404;2023-04-06T06:49:52;101279.53;;;13.39;38.46
13050;BME280;6591;51.446;5.404;2023-04-06T06:52:19;101275.69;;;13.44;38.17
13050;BME280;6591;51.446;5.404;2023-04-06T06:54:46;101279.00;;;13.49;37.81
13050;BME280;6591;51.446;5.404;2023-04-06T06:57:13;101290.19;;;13.56;37.72
13050;BME280;6591;51.446;5.404;2023-04-06T06:59:40;101284.47;;;13.64;38.01
13050;BME280;6591;51.446;5.404;2023-04-06T07:02:07;101280.63;;;13.69;37.97
13050;BME280;6591;51.446;5.404;2023-04-06T07:04:35;101287.28;;;13.78;37.98
13050;BME280;6591;51.446;5.404;2023-04-06T07:07:02;101283.44;;;13.83;37.91
13050;BME280;6591;51.446;5.404;2023-04-06T07:09:30;101281.34;;;13.90;38.37
13050;BME280;6591;51.446;5.404;2023-04-06T07:11:57;101278.19;;;13.99;37.66
13050;BME280;6591;51.446;5.404;2023-04-06T07:14:24;101287.53;;;14.08;38.03
13050;BME280;6591;51.446;5.404;2023-04-06T07:16:51;101288.84;;;14.16;37.96
13050;BME280;6591;51.446;5.404;2023-04-06T07:19:18;101280.19;;;14.28;38.06
13050;BME280;6591;51.446;5.404;2023-04-06T07:21:45;101285.94;;;14.38;38.06
13050;BME280;6591;51.446;5.404;2023-04-06T07:24:12;101281.88;;;14.47;37.88
13050;BME280;6591;51.446;5.404;2023-04-06T07:26:39;101282.16;;;14.58;37.78
13050;BME280;6591;51.446;5.404;2023-04-06T07:29:06;101278.97;;;14.67;37.97
13050;BME280;6591;51.446;5.404;2023-04-06T07:31:33;101270.44;;;14.76;37.68
13050;BME280;6591;51.446;5.404;2023-04-06T07:34:03;101276.16;;;14.86;37.68
13050;BME280;6591;51.446;5.404;2023-04-06T07:36:30;101271.81;;;14.99;37.68
13050;BME280;6591;51.446;5.404;2023-04-06T07:38:58;101266.06;;;15.06;37.89
13050;BME280;6591;51.446;5.404;2023-04-06T07:41:25;101271.53;;;15.19;37.55
13050;BME280;6591;51.446;5.404;2023-04-06T07:43:53;101262.91;;;15.30;37.54
13050;BME280;6591;51.446;5.404;2023-04-06T07:46:20;101268.50;;;15.41;37.50
13050;BME280;6591;51.446;5.404;2023-04-06T07:48:47;101259.91;;;15.50;37.43
13050;BME280;6591;51.446;5.404;2023-04-06T07:51:14;101263.81;;;15.60;37.38
13050;BME280;6591;51.446;5.404;2023-04-06T07:53:46;101259.66;;;15.70;37.24
13050;BME280;6591;51.446;5.404;2023-04-06T07:56:13;101260.81;;;15.80;37.08
13050;BME280;6591;51.446;5.404;2023-04-06T07:58:42;101266.56;;;15.88;37.11
13050;BME280;6591;51.446;5.404;2023-04-06T08:01:09;101272.22;;;15.98;37.20
13050;BME280;6591;51.446;5.404;2023-04-06T08:03:36;101262.78;;;16.06;36.71
13050;BME280;6591;51.446;5.404;2023-04-06T08:06:04;101268.72;;;16.12;36.98
13050;BME280;6591;51.446;5.404;2023-04-06T08:08:32;101260.09;;;16.21;36.73
13050;BME280;6591;51.446;5.404;2023-04-06T08:10:59;101264.22;;;16.26;36.94
13050;BME280;6591;51.446;5.404;2023-04-06T08:13:28;101266.41;;;16.34;36.38
13050;BME280;6591;51.446;5.404;2023-04-06T08:15:55;101266.81;;;16.42;36.77
13050;BME280;6591;51.446;5.404;2023-04-06T08:18:23;101258.16;;;16.51;36.87
13050;BME280;6591;51.446;5.404;2023-04-06T08:20:50;101274.56;;;16.61;36.55
13050;BME280;6591;51.446;5.404;2023-04-06T08:23:17;101271.19;;;16.71;36.78
13050;BME280;6591;51.446;5.404;2023-04-06T08:25:44;101266.00;;;16.82;36.69
13050;BME280;6591;51.446;5.404;2023-04-06T08:28:11;101268.88;;;16.93;36.37
13050;BME280;6591;51.446;5.404;2023-04-06T08:30:42;101263.97;;;17.00;36.32
13050;BME280;6591;51.446;5.404;2023-04-06T08:33:10;101272.28;;;17.10;36.25
13050;BME280;6591;51.446;5.404;2023-04-06T08:35:37;101274.56;;;17.16;36.42
13050;BME280;6591;51.446;5.404;2023-04-06T08:38:04;101276.63;;;17.25;36.09
13050;BME280;6591;51.446;5.404;2023-04-06T08:40:37;101272.03;;;17.27;35.91
13050;BME280;6591;51.446;5.404;2023-04-06T08:43:09;101273.53;;;17.31;35.69
13050;BME280;6591;51.446;5.404;2023-04-06T08:45:41;101275.81;;;17.37;35.91
13050;BME280;6591;51.446;5.404;2023-04-06T08:48:11;101271.09;;;17.41;35.75
13050;BME280;6591;51.446;5.404;2023-04-06T08:50:39;101286.91;;;17.45;35.97
13050;BME280;6591;51.446;5.404;2023-04-06T08:53:07;101277.66;;;17.49;35.70
13050;BME280;6591;51.446;5.404;2023-04-06T08:55:35;101273.72;;;17.55;35.82
13050;BME280;6591;51.446;5.404;2023-04-06T08:58:06;101278.69;;;17.61;35.84
13050;BME280;6591;51.446;5.404;2023-04-06T09:00:37;101275.50;;;17.68;35.63
13050;BME280;6591;51.446;5.404;2023-04-06T09:03:06;101280.25;;;17.77;35.71
13050;BME280;6591;51.446;5.404;2023-04-06T09:05:35;101280.38;;;17.89;35.77
13050;BME280;6591;51.446;5.404;2023-04-06T09:08:02;101282.44;;;17.98;35.46
13050;BME280;6591;51.446;5.404;2023-04-06T09:10:30;101288.97;;;18.06;35.82
13050;BME280;6591;51.446;5.404;2023-04-06T09:13:06;101281.34;;;18.13;35.61
13050;BME280;6591;51.446;5.404;2023-04-06T09:15:34;101285.13;;;18.23;35.97
13050;BME280;6591;51.446;5.404;2023-04-06T09:18:01;101291.91;;;18.29;35.95
13050;BME280;6591;51.446;5.404;2023-04-06T09:20:29;101289.75;;;18.34;36.02
13050;BME280;6591;51.446;5.404;2023-04-06T09:22:57;101286.84;;;18.37;36.04
13050;BME280;6591;51.446;5.404;2023-04-06T09:25:25;101281.16;;;18.41;36.60
13050;BME280;6591;51.446;5.404;2023-04-06T09:28:02;101282.00;;;18.42;36.48
13050;BME280;6591;51.446;5.404;2023-04-06T09:30:30;101284.56;;;18.43;36.47
13050;BME280;6591;51.446;5.404;2023-04-06T09:32:58;101277.47;;;18.42;36.49
13050;BME280;6591;51.446;5.404;2023-04-06T09:35:26;101280.72;;;18.47;36.55
13050;BME280;6591;51.446;5.404;2023-04-06T09:37:54;101287.69;;;18.50;36.50
13050;BME280;6591;51.446;5.404;2023-04-06T09:40:22;101289.31;;;18.52;36.67
13050;BME280;6591;51.446;5.404;2023-04-06T09:42:50;101286.44;;;18.55;36.65
13050;BME280;6591;51.446;5.404;2023-04-06T09:45:19;101282.53;;;18.59;36.34
13050;BME280;6591;51.446;5.404;2023-04-06T09:47:49;101277.94;;;18.61;36.69
13050;BME280;6591;51.446;5.404;2023-04-06T09:50:19;101285.03;;;18.63;36.19
13050;BME280;6591;51.446;5.404;2023-04-06T09:52:54;101284.28;;;18.60;36.35
13050;BME280;6591;51.446;5.404;2023-04-06T09:55:35;101280.09;;;18.56;36.95
13050;BME280;6591;51.446;5.404;2023-04-06T09:58:10;101287.28;;;18.56;36.47
13050;BME280;6591;51.446;5.404;2023-04-06T10:01:05;101278.13;;;18.46;37.08
13050;BME280;6591;51.446;5.404;2023-04-06T10:03:48;101279.19;;;18.43;37.14
13050;BME280;6591;51.446;5.404;2023-04-06T10:06:23;101281.25;;;18.40;37.56
13050;BME280;6591;51.446;5.404;2023-04-06T10:08:55;101288.69;;;18.36;37.43
13050;BME280;6591;51.446;5.404;2023-04-06T10:11:23;101285.22;;;18.34;37.71
13050;BME280;6591;51.446;5.404;2023-04-06T10:13:50;101284.59;;;18.31;37.74
13050;BME280;6591;51.446;5.404;2023-04-06T10:16:17;101282.34;;;18.25;37.86
13050;BME280;6591;51.446;5.404;2023-04-06T10:18:55;101282.66;;;18.20;37.87
13050;BME280;6591;51.446;5.404;2023-04-06T10:21:25;101288.03;;;18.20;38.34
13050;BME280;6591;51.446;5.404;2023-04-06T10:24:00;101285.53;;;18.17;38.26
13050;BME280;6591;51.446;5.404;2023-04-06T10:26:28;101292.66;;;18.18;38.27
13050;BME280;6591;51.446;5.404;2023-04-06T10:28:55;101283.72;;;18.17;38.43
13050;BME280;6591;51.446;5.404;2023-04-06T10:31:27;101290.06;;;18.16;38.32
13050;BME280;6591;51.446;5.404;2023-04-06T10:33:55;101289.97;;;18.18;38.67
13050;BME280;6591;51.446;5.404;2023-04-06T10:36:32;101285.69;;;18.15;38.61
13050;BME280;6591;51.446;5.404;2023-04-06T10:39:03;101285.88;;;18.12;38.94
13050;BME280;6591;51.446;5.404;2023-04-06T10:41:36;101280.81;;;18.08;38.87
13050;BME280;6591;51.446;5.404;2023-04-06T10:44:07;101283.72;;;18.05;38.93
13050;BME280;6591;51.446;5.404;2023-04-06T10:46:34;101278.78;;;17.99;38.94
13050;BME280;6591;51.446;5.404;2023-04-06T10:49:11;101274.78;;;17.92;39.51
13050;BME280;6591;51.446;5.404;2023-04-06T10:51:39;101274.88;;;17.90;39.48
13050;BME280;6591;51.446;5.404;2023-04-06T10:54:07;101281.34;;;17.88;39.41
13050;BME280;6591;51.446;5.404;2023-04-06T10:56:37;101279.84;;;17.84;39.76
13050;BME280;6591;51.446;5.404;2023-04-06T10:59:06;101276.38;;;17.82;39.87
13050;BME280;6591;51.446;5.404;2023-04-06T11:01:34;101265.94;;;17.77;39.72
13050;BME280;6591;51.446;5.404;2023-04-06T11:04:01;101269.81;;;17.73;40.28
13050;BME280;6591;51.446;5.404;2023-04-06T11:06:30;101263.03;;;17.67;40.02
13050;BME280;6591;51.446;5.404;2023-04-06T11:09:01;101258.09;;;17.61;40.39
13050;BME280;6591;51.446;5.404;2023-04-06T11:11:28;101261.91;;;17.57;40.52
13050;BME280;6591;51.446;5.404;2023-04-06T11:13:59;101259.53;;;17.53;40.41
13050;BME280;6591;51.446;5.404;2023-04-06T11:16:29;101259.81;;;17.48;40.64
13050;BME280;6591;51.446;5.404;2023-04-06T11:19:04;101259.28;;;17.43;41.10
13050;BME280;6591;51.446;5.404;2023-04-06T11:21:45;101255.22;;;17.38;41.17
13050;BME280;6591;51.446;5.404;2023-04-06T11:24:23;101256.03;;;17.38;41.28
13050;BME280;6591;51.446;5.404;2023-04-06T11:26:56;101254.91;;;17.42;41.72
13050;BME280;6591;51.446;5.404;2023-04-06T11:29:27;101247.16;;;17.50;41.87
13050;BME280;6591;51.446;5.404;2023-04-06T11:32:01;101244.84;;;17.58;41.90
13050;BME280;6591;51.446;5.404;2023-04-06T11:34:32;101241.34;;;17.70;42.04
13050;BME280;6591;51.446;5.404;2023-04-06T11:37:02;101245.88;;;17.83;42.24
13050;BME280;6591;51.446;5.404;2023-04-06T11:39:31;101241.34;;;17.96;42.86
13050;BME280;6591;51.446;5.404;2023-04-06T11:42:03;101231.66;;;18.06;42.10
13050;BME280;6591;51.446;5.404;2023-04-06T11:44:43;101232.00;;;18.14;42.21
13050;BME280;6591;51.446;5.404;2023-04-06T11:47:13;101220.69;;;18.21;42.35
13050;BME280;6591;51.446;5.404;2023-04-06T11:49:42;101222.09;;;18.27;42.71
13050;BME280;6591;51.446;5.404;2023-04-06T11:52:25;101219.63;;;18.24;42.29
13050;BME280;6591;51.446;5.404;2023-04-06T11:54:54;101215.03;;;18.26;41.95
13050;BME280;6591;51.446;5.404;2023-04-06T11:57:23;101210.38;;;18.28;42.19
13050;BME280;6591;51.446;5.404;2023-04-06T11:59:55;101213.16;;;18.27;42.03
13050;BME280;6591;51.446;5.404;2023-04-06T12:02:22;101210.59;;;18.25;42.13
13050;BME280;6591;51.446;5.404;2023-04-06T12:04:49;101206.19;;;18.24;42.34
13050;BME280;6591;51.446;5.404;2023-04-06T12:07:16;101200.91;;;18.23;42.47
13050;BME280;6591;51.446;5.404;2023-04-06T12:09:43;101205.44;;;18.22;42.43
13050;BME280;6591;51.446;5.404;2023-04-06T12:12:10;101204.56;;;18.21;42.32
13050;BME280;6591;51.446;5.404;2023-04-06T12:14:37;101202.75;;;18.22;42.42
13050;BME280;6591;51.446;5.404;2023-04-06T12:17:04;101206.28;;;18.23;42.51
13050;BME280;6591;51.446;5.404;2023-04-06T12:19:31;101201.78;;;18.23;42.71
13050;BME280;6591;51.446;5.404;2023-04-06T12:21:58;101202.88;;;18.20;42.67
13050;BME280;6591;51.446;5.404;2023-04-06T12:24:27;101194.91;;;18.19;42.44
13050;BME280;6591;51.446;5.404;2023-04-06T12:26:54;101199.75;;;18.14;42.24
13050;BME280;6591;51.446;5.404;2023-04-06T12:29:35;101200.94;;;18.10;42.64
13050;BME280;6591;51.446;5.404;2023-04-06T12:32:02;101202.25;;;18.04;42.27
13050;BME280;6591;51.446;5.404;2023-04-06T12:34:30;101210.72;;;17.98;42.47
13050;BME280;6591;51.446;5.404;2023-04-06T12:36:57;101196.00;;;17.91;42.50
13050;BME280;6591;51.446;5.404;2023-04-06T12:39:25;101201.16;;;17.82;42.40
13050;BME280;6591;51.446;5.404;2023-04-06T12:41:52;101201.81;;;17.72;42.72
13050;BME280;6591;51.446;5.404;2023-04-06T12:44:19;101194.41;;;17.63;42.71
13050;BME280;6591;51.446;5.404;2023-04-06T12:46:47;101205.63;;;17.56;42.69
13050;BME280;6591;51.446;5.404;2023-04-06T12:49:14;101190.16;;;17.47;42.63
13050;BME280;6591;51.446;5.404;2023-04-06T12:51:43;101188.84;;;17.40;43.10
13050;BME280;6591;51.446;5.404;2023-04-06T12:54:10;101190.88;;;17.36;43.26
13050;BME280;6591;51.446;5.404;2023-04-06T12:56:38;101184.00;;;17.32;43.34
13050;BME280;6591;51.446;5.404;2023-04-06T12:59:05;101182.28;;;17.31;43.67
13050;BME280;6591;51.446;5.404;2023-04-06T13:01:32;101177.88;;;17.30;43.60
13050;BME280;6591;51.446;5.404;2023-04-06T13:04:00;101179.78;;;17.28;43.70
13050;BME280;6591;51.446;5.404;2023-04-06T13:06:27;101180.00;;;17.25;43.68
13050;BME280;6591;51.446;5.404;2023-04-06T13:08:55;101171.00;;;17.26;43.72
13050;BME280;6591;51.446;5.404;2023-04-06T13:11:23;101173.69;;;17.26;43.80
13050;BME280;6591;51.446;5.404;2023-04-06T13:13:54;101169.03;;;17.28;43.64
13050;BME280;6591;51.446;5.404;2023-04-06T13:16:21;101159.16;;;17.28;43.92